Latest Coastal Weather Observations for Smithton

IDV60701

Issued at 2:41 am EST Thursday 23 May 2024 (issued every 10 minutes, with the page automatically refreshed every 10 minutes)

About coastal observations | Map of coastal stations | Coastal observations for VIC | Marine services | Other Formats
Station Details ID: 091292 Name: SMITHTON AERODROME Lat: -40.83 Lon: 145.08 Height: 7.5 m
Data from the previous 72 hours. | See also: Recent months at Smithton
Date/Time
EST
Wind Sea
Height
m
Swell Vis
km
Cloud Weather Temp
°C
Press
MSL
hPa
Rain since
9am
mm
Dir  Spd
kts
Gust
kts
Height
m
Period
s
Dir
23/02:30am CALM 0 0 - - - - - - - 5.2 1025.5 0.0
23/02:00am S 4 5 - - - - - - - 5.7 1025.4 0.0
23/01:30am SSW 3 4 - - - - - - - 5.8 1025.5 0.0
23/01:00am S 5 6 - - - - - - - 6.3 1025.6 0.0
23/12:30am S 2 4 - - - - - - - 5.9 1025.6 0.0
23/12:00am S 1 4 - - - - - - - 5.3 1025.8 0.0
 
Date/Time
EST
Wind Sea
Height
m
Swell Vis
km
Cloud Weather Temp
°C
Press
MSL
hPa
Rain since
9am
mm
Dir  Spd
kts
Gust
kts
Height
m
Period
s
Dir
22/11:30pm S 4 6 - - - - - - - 4.3 1025.8 0.0
22/11:00pm S 5 6 - - - - - - - 2.6 1025.8 0.0
22/10:30pm CALM 0 0 - - - - - - - 1.8 1025.8 0.0
22/10:00pm CALM 0 0 - - - - - - - 1.4 1025.9 0.0
22/09:30pm S 3 4 - - - - - - - 2.6 1026.0 0.0
22/09:00pm S 4 5 - - - - - - - 2.9 1026.0 0.0
22/08:30pm SSW 3 4 - - - - - - - 4.3 1026.0 0.0
22/08:00pm SW 4 4 - - - - - - - 5.3 1026.1 0.0
22/07:30pm SW 3 4 - - - - - - - 6.4 1026.2 0.0
22/07:00pm SW 5 5 - - - - - - - 6.9 1026.2 0.0
22/06:30pm SW 7 8 - - - - - - - 6.9 1026.0 0.0
22/06:00pm SSW 8 9 - - - - - - - 7.7 1025.7 0.0
22/05:30pm SSW 8 9 - - - - - - - 9.2 1025.4 0.0
22/05:00pm SW 7 8 - - - - - - - 10.5 1025.4 0.0
22/04:30pm SW 7 8 - - - - - - - 12.2 1025.2 0.0
22/04:00pm SW 10 13 - - - - - - - 14.0 1025.3 0.0
22/03:30pm SW 10 13 - - - - - - - 14.5 1025.1 0.0
22/03:00pm SW 10 17 - - - - - - - 14.7 1025.1 0.0
22/02:30pm SW 11 15 - - - - - - - 16.0 1025.1 0.0
22/02:00pm SW 10 13 - - - - - - - 15.1 1025.4 0.0
22/01:30pm SW 9 11 - - - - - - - 15.1 1025.7 0.0
22/01:00pm SW 11 14 - - - - - - - 15.5 1025.9 0.0
22/12:30pm SW 11 15 - - - - - - - 16.1 1026.0 0.0
22/12:00pm SW 11 14 - - - - - - - 16.5 1026.3 0.0
22/11:30am SSW 11 14 - - - - - - - 16.0 1026.7 0.0
22/11:00am S 7 9 - - - - - - - 15.5 1027.0 0.0
22/10:30am S 5 7 - - - - - - - 13.9 1027.3 0.0
22/10:00am SSW 4 6 - - - - - - - 12.4 1027.4 0.0
22/09:30am S 4 5 - - - - - - - 10.9 1027.5 0.0
22/09:00am SSW 4 5 - - - - - - - 9.1 1027.6 0.0
22/08:30am S 5 6 - - - - - - - 8.0 1027.5 0.0
22/08:00am S 5 6 - - - - - - - 6.7 1027.2 0.0
22/07:30am S 5 6 - - - - - - - 5.3 1027.2 0.0
22/07:00am S 4 5 - - - - - - - 7.2 1027.0 0.0
22/06:30am S 6 7 - - - - - - - 7.5 1026.8 0.0
22/06:00am SSW 6 6 - - - - - - - 7.1 1026.7 0.0
22/05:30am S 6 8 - - - - - - - 7.9 1026.7 0.0
22/05:00am S 6 7 - - - - - - - 8.7 1026.7 0.0
22/04:30am S 6 7 - - - - - - - 8.9 1026.6 0.0
22/04:00am S 6 7 - - - - - - - 9.5 1026.7 0.0
22/03:30am S 6 7 - - - - - - - 9.4 1026.8 0.0
22/03:00am S 6 7 - - - - - - - 6.7 1027.0 0.0
22/02:30am S 5 6 - - - - - - - 5.9 1027.3 0.0
22/02:00am S 6 7 - - - - - - - 6.6 1027.3 0.0
22/01:30am SSW 6 7 - - - - - - - 6.2 1027.3 0.0
22/01:00am SSW 6 7 - - - - - - - 7.1 1027.5 0.0
22/12:30am S 6 7 - - - - - - - 7.6 1027.8 0.0
22/12:00am SSW 7 8 - - - - - - - 7.5 1028.2 0.0
 
Date/Time
EST
Wind Sea
Height
m
Swell Vis
km
Cloud Weather Temp
°C
Press
MSL
hPa
Rain since
9am
mm
Dir  Spd
kts
Gust
kts
Height
m
Period
s
Dir
21/11:30pm SSW 6 7 - - - - - - - 8.1 1028.3 0.0
21/11:00pm SSW 6 6 - - - - - - - 8.1 1028.4 0.0
21/10:30pm SSW 1 4 - - - - - - - 6.5 1028.7 0.0
21/10:00pm SSW 4 5 - - - - - - - 5.7 1029.0 0.0
21/09:30pm SSW 5 5 - - - - - - - 6.0 1029.1 0.0
21/09:00pm SSW 4 6 - - - - - - - 6.7 1029.1 0.0
21/08:30pm SSW 6 7 - - - - - - - 7.7 1029.1 0.0
21/08:00pm SW 5 6 - - - - - - - 7.0 1029.1 0.0
21/07:30pm SSW 6 7 - - - - - - - 7.9 1029.3 0.0
21/07:00pm SSW 4 5 - - - - - - - 8.2 1029.3 0.0
21/06:30pm SSW 6 7 - - - - - - - 8.1 1029.1 0.0
21/06:00pm SSW 7 8 - - - - - - - 9.0 1029.0 0.0
21/05:30pm SSW 4 7 - - - - - - - 10.7 1028.8 0.0
21/05:00pm W 3 4 - - - - - - - 11.9 1028.7 0.0
21/04:30pm NNW 5 6 - - - - - - - 13.2 1028.6 0.0
21/04:00pm E 4 6 - - - - - - - 14.1 1028.5 0.0
21/03:30pm SSW 9 11 - - - - - - - 15.3 1028.5 0.0
21/03:00pm SSW 9 11 - - - - - - - 15.5 1028.4 0.0
21/02:30pm S 9 12 - - - - - - - 15.6 1028.5 0.0
21/02:00pm SSW 9 13 - - - - - - - 15.3 1028.6 0.0
21/01:30pm SSW 11 15 - - - - - - - 14.7 1028.8 0.0
21/01:00pm SSW 11 15 - - - - - - - 14.5 1029.2 0.0
21/12:30pm S 13 17 - - - - - - - 14.0 1029.5 0.0
21/12:00pm S 12 15 - - - - - - - 13.8 1029.9 0.0
21/11:30am SSW 15 19 - - - - - - - 12.7 1030.4 0.0
21/11:00am SSW 14 18 - - - - - - - 11.7 1030.5 0.0
21/10:30am S 13 17 - - - - - - - 10.7 1030.7 0.0
21/10:00am S 14 18 - - - - - - - 9.6 1030.6 0.0
21/09:30am S 11 15 - - - - - - - 8.4 1030.5 0.0
21/09:00am SSW 10 16 - - - - - - - 7.1 1030.5 0.4
21/08:30am S 9 11 - - - - - - - 4.7 1030.3 0.4
21/08:00am SSE 5 7 - - - - - - - 4.0 1030.1 0.4
21/07:30am SSE 5 8 - - - - - - - 3.9 1029.9 0.4
21/07:00am S 7 9 - - - - - - - 2.2 1029.9 0.4
21/06:30am SSW 8 11 - - - - - - - 2.4 1029.8 0.4
21/06:00am SSW 9 10 - - - - - - - 2.6 1029.8 0.4
21/05:30am SSW 9 11 - - - - - - - 2.8 1029.7 0.4
21/05:00am S 3 6 - - - - - - - 2.8 1029.6 0.4
21/04:30am S 3 4 - - - - - - - 2.9 1029.3 0.4
21/04:00am SSW 9 10 - - - - - - - 3.2 1029.5 0.4
21/03:30am SSW 9 11 - - - - - - - 3.6 1029.6 0.4
21/03:00am S 9 10 - - - - - - - 3.3 1029.5 0.4
21/02:30am S 9 11 - - - - - - - 3.8 1029.7 0.4
21/02:00am S 10 11 - - - - - - - 4.3 1029.5 0.4
21/01:30am S 9 11 - - - - - - - 4.5 1029.5 0.4
21/01:00am S 9 11 - - - - - - - 4.8 1029.7 0.4
21/12:30am S 8 10 - - - - - - - 4.4 1029.6 0.4
21/12:00am SSW 9 12 - - - - - - Recent precip. 4.9 1029.8 0.4
 
Date/Time
EST
Wind Sea
Height
m
Swell Vis
km
Cloud Weather Temp
°C
Press
MSL
hPa
Rain since
9am
mm
Dir  Spd
kts
Gust
kts
Height
m
Period
s
Dir
20/11:30pm SSW 9 11 - - - - - - - 4.9 1029.7 0.4
20/11:00pm SSW 8 10 - - - - - - - 4.5 1029.6 0.0
20/10:30pm S 6 7 - - - - - - - 4.6 1029.6 0.0
20/10:00pm S 7 8 - - - - - - - 4.8 1029.8 0.0
20/09:30pm S 7 9 - - - - - - - 3.9 1029.7 0.0
20/09:00pm SSW 6 7 - - - - - - - 3.8 1029.6 0.0
20/08:30pm SSW 7 9 - - - - - - - 4.4 1029.3 0.0
20/08:00pm SSW 9 9 - - - - - - - 4.7 1029.4 0.0
20/07:30pm SSW 8 8 - - - - - - - 4.8 1029.4 0.0
20/07:00pm SSW 7 8 - - - - - - - 6.1 1029.0 0.0
20/06:30pm SSW 7 8 - - - - - - - 6.4 1028.6 0.0
20/06:00pm SW 5 6 - - - - - - - 7.0 1028.1 0.0
20/05:30pm SW 6 6 - - - - - - - 7.9 1027.8 0.0
20/05:00pm SW 7 8 - - - - - - - 10.0 1027.5 0.0
20/04:30pm SSW 7 7 - - - - - - - 11.7 1027.4 0.0
20/04:00pm SW 5 7 - - - - - - - 13.5 1027.2 0.0
20/03:30pm SW 5 8 - - - - - - - 14.3 1027.1 0.0
20/03:00pm SW 5 11 - - - - - - - 14.9 1027.0 0.0
20/02:30pm S 6 9 - - - - - - - 14.3 1027.0 0.0
20/02:00pm S 6 9 - - - - - - - 14.3 1027.1 0.0
20/01:30pm SSE 5 9 - - - - - - - 13.9 1027.3 0.0
20/01:00pm SSE 5 8 - - - - - - - 13.5 1027.4 0.0
20/12:30pm SSW 7 10 - - - - - - - 13.1 1027.6 0.0
20/12:00pm S 9 11 - - - - - - - 12.8 1027.9 0.0
20/11:30am S 9 13 - - - - - - - 12.3 1028.1 0.0
20/11:00am S 10 14 - - - - - - - 11.4 1028.1 0.0
20/10:30am SSW 9 12 - - - - - - - 10.7 1027.8 0.0
20/10:00am S 9 11 - - - - - - - 9.7 1027.7 0.0
20/09:30am S 8 9 - - - - - - - 8.2 1027.6 0.0
20/09:00am S 6 8 - - - - - - - 6.5 1027.5 0.2
20/08:30am S 7 8 - - - - - - - 5.3 1027.2 0.2
20/08:00am S 7 7 - - - - - - - 3.6 1027.0 0.2
20/07:30am S 7 9 - - - - - - - 3.4 1026.6 0.2
20/07:00am S 7 8 - - - - - - - 3.3 1026.2 0.2
20/06:30am S 7 8 - - - - - - - 4.2 1025.9 0.2
20/06:00am S 8 9 - - - - - - - 4.6 1025.6 0.2
20/05:30am S 8 9 - - - - - - - 4.5 1025.1 0.2
20/05:00am S 8 10 - - - - - - - 5.3 1024.8 0.2
20/04:30am S 9 11 - - - - - - - 4.4 1024.4 0.2
20/04:00am S 9 10 - - - - - - - 4.6 1024.2 0.2
20/03:30am SSW 8 9 - - - - - - - 4.2 1024.0 0.2
20/03:00am S 8 9 - - - - - - - 5.3 1023.9 0.2

Other formats

Comma delimited format used in spreadsheet applications
http://www.bom.gov.au/fwo/IDV60701/IDV60701.94953.axf

JavaScript Object Notation format (JSON) in row-major order
http://www.bom.gov.au/fwo/IDV60701/IDV60701.94953.json

Data quality

Most of these data are generated automatically and are frequently updated. Quality checks on data are not normally performed. It is possible for incorrect values to appear. Refer to information at About Latest Weather Observations and please check the disclaimer before using these data.